createdAt,value
2018-12-27T00:01:53.351Z,11.33
2018-12-27T00:04:27.220Z,10.77
2018-12-27T00:07:00.237Z,11.13
2018-12-27T00:09:33.249Z,11.57
2018-12-27T00:12:06.272Z,11.40
2018-12-27T00:14:39.283Z,10.97
2018-12-27T00:17:12.280Z,10.93
2018-12-27T00:19:45.289Z,11.90
2018-12-27T00:22:18.293Z,11.80
2018-12-27T00:24:51.310Z,11.67
2018-12-27T00:27:24.312Z,12.30
2018-12-27T00:29:59.927Z,12.57
2018-12-27T00:32:33.500Z,11.57
2018-12-27T00:35:06.852Z,10.60
2018-12-27T00:37:40.160Z,11.03
2018-12-27T00:40:13.473Z,11.43
2018-12-27T00:42:46.763Z,10.77
2018-12-27T00:45:20.127Z,10.93
2018-12-27T00:47:53.498Z,11.07
2018-12-27T00:50:26.816Z,11.47
2018-12-27T00:53:00.184Z,10.93
2018-12-27T00:55:33.490Z,11.00
2018-12-27T00:58:06.787Z,10.87
2018-12-27T01:00:40.597Z,11.40
2018-12-27T01:03:13.924Z,10.90
2018-12-27T01:05:47.227Z,11.00
2018-12-27T01:08:20.554Z,11.67
2018-12-27T01:10:53.867Z,10.97
2018-12-27T01:13:27.569Z,11.03
2018-12-27T01:16:02.332Z,10.87
2018-12-27T01:18:35.779Z,10.43
2018-12-27T01:21:09.878Z,10.50
2018-12-27T01:23:43.784Z,11.27
2018-12-27T01:26:17.144Z,10.27
2018-12-27T01:28:50.455Z,10.83
2018-12-27T01:31:24.314Z,10.60
2018-12-27T01:33:57.606Z,10.27
2018-12-27T01:36:31.030Z,10.23
2018-12-27T01:39:05.317Z,9.63
2018-12-27T01:41:39.255Z,10.27
2018-12-27T01:44:12.626Z,10.97
2018-12-27T01:46:45.948Z,10.20
2018-12-27T01:49:19.239Z,10.40
2018-12-27T01:51:52.567Z,10.67
2018-12-27T01:54:25.873Z,10.40
2018-12-27T01:56:59.271Z,9.73
2018-12-27T01:59:32.566Z,10.20
2018-12-27T02:02:05.909Z,9.80
2018-12-27T02:04:39.204Z,10.53
2018-12-27T02:07:12.515Z,10.87
2018-12-27T02:09:45.857Z,9.87
2018-12-27T02:12:55.210Z,10.17
2018-12-27T02:15:28.199Z,10.40
2018-12-27T02:18:01.471Z,10.20
2018-12-27T02:20:34.826Z,10.33
2018-12-27T02:23:08.159Z,10.53
2018-12-27T02:25:41.215Z,9.50
2018-12-27T02:28:14.303Z,9.53
2018-12-27T02:30:47.278Z,10.33
2018-12-27T02:33:20.349Z,10.17
2018-12-27T02:35:53.602Z,9.30
2018-12-27T02:38:26.987Z,10.30
2018-12-27T02:40:59.954Z,9.97
2018-12-27T02:43:33.238Z,9.83
2018-12-27T02:46:06.577Z,10.63
2018-12-27T02:48:39.583Z,10.03
2018-12-27T02:51:12.567Z,10.30
2018-12-27T02:53:45.568Z,9.77
2018-12-27T02:56:18.809Z,10.20
2018-12-27T02:58:51.847Z,10.10
2018-12-27T03:01:24.830Z,9.73
2018-12-27T03:03:57.810Z,10.03
2018-12-27T03:06:30.786Z,10.70
2018-12-27T03:09:03.951Z,9.50
2018-12-27T03:11:36.963Z,9.40
2018-12-27T03:14:09.994Z,9.73
2018-12-27T03:16:42.996Z,9.53
2018-12-27T03:19:16.357Z,9.90
2018-12-27T03:21:49.327Z,9.63
2018-12-27T03:24:22.315Z,10.93
2018-12-27T03:26:55.682Z,10.10
2018-12-27T03:29:28.970Z,9.87
2018-12-27T03:32:01.940Z,9.77
2018-12-27T03:34:34.944Z,9.47
2018-12-27T03:37:07.915Z,9.80
2018-12-27T03:39:40.967Z,10.30
2018-12-27T03:42:14.206Z,9.53
2018-12-27T03:44:47.254Z,9.33
2018-12-27T03:47:20.232Z,9.73
2018-12-27T03:49:53.587Z,9.70
2018-12-27T03:52:26.563Z,9.97
2018-12-27T03:54:59.853Z,10.23
2018-12-27T03:57:32.864Z,9.83
2018-12-27T04:00:05.851Z,11.03
2018-12-27T04:02:38.832Z,9.83
2018-12-27T04:05:11.910Z,10.67
2018-12-27T04:07:44.898Z,10.20
2018-12-27T04:10:18.258Z,9.83
2018-12-27T04:12:51.240Z,10.67
2018-12-27T04:15:23.905Z,9.83
2018-12-27T04:17:56.564Z,10.07
2018-12-27T04:20:29.222Z,10.37
2018-12-27T04:23:02.186Z,10.03
2018-12-27T04:25:35.139Z,10.53
2018-12-27T04:28:07.787Z,10.20
2018-12-27T04:30:40.453Z,10.53
2018-12-27T04:33:14.598Z,11.33
2018-12-27T04:35:48.511Z,10.77
2018-12-27T04:38:21.171Z,10.70
2018-12-27T04:40:53.843Z,10.57
2018-12-27T04:43:26.501Z,11.00
2018-12-27T04:45:59.164Z,10.80
2018-12-27T04:48:31.807Z,10.73
2018-12-27T04:51:04.474Z,11.40
2018-12-27T04:53:37.124Z,11.20
2018-12-27T04:56:09.798Z,11.47
2018-12-27T04:58:42.726Z,11.40
2018-12-27T05:01:15.404Z,11.37
2018-12-27T05:03:48.254Z,11.23
2018-12-27T05:06:20.966Z,11.37
2018-12-27T05:08:53.617Z,11.40
2018-12-27T05:11:26.555Z,11.20
2018-12-27T05:13:59.479Z,11.63
2018-12-27T05:16:32.172Z,11.70
2018-12-27T05:19:04.926Z,11.70
2018-12-27T05:21:37.605Z,10.67
2018-12-27T05:24:10.258Z,11.17
2018-12-27T05:26:43.001Z,11.17
2018-12-27T05:29:15.660Z,10.87
2018-12-27T05:31:48.350Z,10.83
2018-12-27T05:34:26.142Z,11.10
2018-12-27T05:36:56.151Z,10.77
2018-12-27T05:39:29.105Z,10.90
2018-12-27T05:42:01.867Z,11.10
2018-12-27T05:44:34.492Z,11.17
2018-12-27T05:47:07.188Z,11.53
2018-12-27T05:49:39.864Z,11.57
2018-12-27T05:52:12.531Z,11.70
2018-12-27T05:54:46.796Z,11.80
2018-12-27T05:57:19.870Z,11.70
2018-12-27T05:59:52.782Z,11.00
2018-12-27T06:02:25.438Z,11.50
2018-12-27T06:04:58.090Z,11.43
2018-12-27T06:07:30.847Z,10.90
2018-12-27T06:10:04.254Z,11.47
2018-12-27T06:12:37.185Z,11.20
2018-12-27T06:15:10.195Z,11.80
2018-12-27T06:17:43.175Z,11.23
2018-12-27T06:20:16.115Z,11.63
2018-12-27T06:22:49.055Z,11.70
2018-12-27T06:25:22.585Z,11.60
2018-12-27T06:27:55.259Z,11.47
2018-12-27T06:30:29.100Z,11.20
2018-12-27T06:33:01.777Z,11.20
2018-12-27T06:35:34.435Z,11.67
2018-12-27T06:38:07.090Z,10.67
2018-12-27T06:40:40.359Z,12.10
2018-12-27T06:43:13.442Z,11.23
2018-12-27T06:45:46.426Z,11.80
2018-12-27T06:48:19.097Z,11.83
2018-12-27T06:50:51.753Z,11.20
2018-12-27T06:53:24.442Z,11.40
2018-12-27T06:55:57.427Z,11.70
2018-12-27T06:58:37.581Z,11.10
2018-12-27T07:01:04.868Z,11.53
2018-12-27T07:03:38.091Z,11.67
2018-12-27T07:06:10.772Z,11.67
2018-12-27T07:08:43.430Z,10.73
2018-12-27T07:11:16.156Z,11.00
2018-12-27T07:13:49.222Z,10.93
2018-12-27T07:16:24.027Z,10.83
2018-12-27T07:18:58.292Z,10.73
2018-12-27T07:21:31.082Z,10.13
2018-12-27T07:24:03.814Z,10.70
2018-12-27T07:26:37.583Z,10.27
2018-12-27T07:29:10.884Z,11.40
2018-12-27T07:31:43.863Z,10.07
2018-12-27T07:34:16.530Z,10.87
2018-12-27T07:36:49.314Z,10.50
2018-12-27T07:39:22.371Z,10.37
2018-12-27T07:41:55.788Z,11.00
2018-12-27T07:44:28.730Z,10.27
2018-12-27T07:47:03.605Z,10.87
2018-12-27T07:49:36.368Z,11.00
2018-12-27T07:52:09.050Z,9.27
2018-12-27T07:54:43.759Z,10.43
2018-12-27T07:57:17.407Z,10.50
2018-12-27T07:59:50.070Z,10.70
2018-12-27T08:02:22.723Z,10.93
2018-12-27T08:04:55.653Z,10.10
2018-12-27T08:07:28.675Z,9.77
2018-12-27T08:10:01.751Z,9.07
2018-12-27T08:12:36.403Z,10.27
2018-12-27T08:15:09.342Z,9.97
2018-12-27T08:17:42.016Z,9.10
2018-12-27T08:20:14.735Z,9.53
2018-12-27T08:22:47.419Z,10.20
2018-12-27T08:25:20.163Z,9.23
2018-12-27T08:27:55.026Z,9.43
2018-12-27T08:30:29.139Z,9.60
2018-12-27T08:33:02.250Z,9.50
2018-12-27T08:35:35.861Z,9.53
2018-12-27T08:38:09.495Z,9.23
2018-12-27T08:40:42.475Z,9.13
2018-12-27T08:43:15.151Z,9.47
2018-12-27T08:45:49.285Z,9.13
2018-12-27T08:48:22.324Z,9.33
2018-12-27T08:50:55.075Z,9.03
2018-12-27T08:53:29.108Z,9.03
2018-12-27T08:56:01.982Z,9.07
2018-12-27T08:58:34.673Z,8.90
2018-12-27T09:01:08.208Z,9.13
2018-12-27T09:03:41.296Z,8.80
2018-12-27T09:06:14.064Z,9.13
2018-12-27T09:08:48.079Z,8.77
2018-12-27T09:11:20.851Z,9.20
2018-12-27T09:13:55.593Z,9.33
2018-12-27T09:16:28.284Z,8.53
2018-12-27T09:19:01.056Z,8.70
2018-12-27T09:21:34.223Z,9.33
2018-12-27T09:24:08.367Z,8.93
2018-12-27T09:26:42.363Z,9.50
2018-12-27T09:29:16.444Z,9.50
2018-12-27T09:31:50.597Z,9.00
2018-12-27T09:34:23.332Z,8.80
2018-12-27T09:36:56.785Z,9.27
2018-12-27T09:39:29.580Z,9.53
2018-12-27T09:42:02.868Z,10.40
2018-12-27T09:44:38.695Z,9.70
2018-12-27T09:47:13.519Z,9.50
2018-12-27T09:49:46.296Z,9.20
2018-12-27T09:52:19.277Z,8.93
2018-12-27T09:54:52.040Z,9.40
2018-12-27T09:57:25.027Z,9.80
2018-12-27T09:59:57.771Z,9.53
2018-12-27T10:02:30.526Z,8.97
2018-12-27T10:05:05.957Z,10.00
2018-12-27T10:07:41.072Z,9.27
2018-12-27T10:10:13.839Z,10.40
2018-12-27T10:12:46.615Z,10.73
2018-12-27T10:15:19.540Z,9.07
2018-12-27T10:17:52.367Z,9.07
2018-12-27T10:20:25.151Z,9.63
2018-12-27T10:22:57.961Z,9.57
2018-12-27T10:25:30.869Z,10.07
2018-12-27T10:28:03.550Z,9.17
2018-12-27T10:30:36.527Z,9.47
2018-12-27T10:33:09.204Z,8.77
2018-12-27T10:35:41.876Z,9.23
2018-12-27T10:38:14.858Z,9.07
2018-12-27T10:40:47.562Z,9.30
2018-12-27T10:43:20.850Z,10.10
2018-12-27T10:45:53.766Z,9.43
2018-12-27T10:48:26.463Z,9.60
2018-12-27T10:50:59.192Z,10.43
2018-12-27T10:53:31.871Z,8.97
2018-12-27T10:56:04.582Z,9.17
2018-12-27T10:58:37.375Z,9.70
2018-12-27T11:01:10.020Z,10.37
2018-12-27T11:03:43.095Z,9.37
2018-12-27T11:06:15.810Z,9.77
2018-12-27T11:08:48.502Z,9.30
2018-12-27T11:11:21.222Z,9.90
2018-12-27T11:13:54.015Z,9.03
2018-12-27T11:16:28.738Z,9.47
2018-12-27T11:19:01.747Z,9.47
2018-12-27T11:21:34.428Z,8.83
2018-12-27T11:24:07.552Z,9.20
2018-12-27T11:26:40.320Z,9.00
2018-12-27T11:29:15.332Z,9.93
2018-12-27T11:31:48.047Z,9.10
2018-12-27T11:34:21.176Z,9.07
2018-12-27T11:36:54.039Z,8.90
2018-12-27T11:39:26.854Z,10.37
2018-12-27T11:41:59.559Z,9.40
2018-12-27T11:44:32.509Z,9.17
2018-12-27T11:47:06.223Z,9.60
2018-12-27T11:49:40.824Z,9.00
2018-12-27T11:52:13.488Z,9.50
2018-12-27T11:54:46.157Z,9.80
2018-12-27T11:57:40.523Z,9.53
2018-12-27T12:00:13.638Z,9.07
2018-12-27T12:02:46.657Z,9.20
2018-12-27T12:05:20.451Z,8.77
2018-12-27T12:07:53.163Z,8.83
2018-12-27T12:10:25.929Z,8.50
2018-12-27T12:12:58.710Z,10.13
2018-12-27T12:15:31.490Z,8.37
2018-12-27T12:18:04.268Z,8.50
2018-12-27T12:20:37.071Z,9.13
2018-12-27T12:23:10.636Z,9.50
2018-12-27T12:25:43.458Z,8.23
2018-12-27T12:28:16.202Z,8.20
2018-12-27T12:30:49.071Z,8.30
2018-12-27T12:33:22.224Z,8.23
2018-12-27T12:35:55.279Z,8.23
2018-12-27T12:38:28.010Z,7.70
2018-12-27T12:41:00.862Z,8.33
2018-12-27T12:43:33.543Z,8.90
2018-12-27T12:46:07.524Z,8.43
2018-12-27T12:48:40.423Z,8.40
2018-12-27T12:51:15.572Z,8.73
2018-12-27T12:53:50.487Z,8.10
2018-12-27T12:56:23.624Z,8.33
2018-12-27T12:58:56.303Z,8.77
2018-12-27T13:01:29.086Z,8.93
2018-12-27T13:04:01.780Z,8.00
2018-12-27T13:06:34.840Z,7.67
2018-12-27T13:09:09.002Z,8.97
2018-12-27T13:11:42.791Z,9.03
2018-12-27T13:14:15.819Z,7.73
2018-12-27T13:16:48.608Z,8.37
2018-12-27T13:19:21.669Z,7.77
2018-12-27T13:21:56.632Z,7.10
2018-12-27T13:24:29.783Z,7.40
2018-12-27T13:27:06.282Z,7.13
2018-12-27T13:29:39.176Z,6.87
2018-12-27T13:32:12.676Z,8.47
2018-12-27T13:34:45.777Z,8.70
2018-12-27T13:37:18.574Z,7.07
2018-12-27T13:39:51.314Z,7.73
2018-12-27T13:42:24.087Z,7.60
2018-12-27T13:44:56.843Z,8.43
2018-12-27T13:47:29.511Z,8.13
2018-12-27T13:50:02.795Z,7.60
2018-12-27T13:52:35.539Z,6.77
2018-12-27T13:55:11.607Z,7.93
2018-12-27T13:57:44.386Z,6.83
2018-12-27T14:00:17.495Z,7.60
2018-12-27T14:02:50.758Z,6.80
2018-12-27T14:05:23.543Z,7.10
2018-12-27T14:07:56.347Z,7.00
2018-12-27T14:10:31.406Z,7.13
2018-12-27T14:13:04.200Z,7.20
2018-12-27T14:15:37.256Z,8.20
2018-12-27T14:18:09.970Z,7.80
2018-12-27T14:20:43.021Z,7.50
2018-12-27T14:23:16.050Z,7.40
2018-12-27T14:25:49.599Z,6.80
2018-12-27T14:28:23.660Z,6.83
2018-12-27T14:30:56.319Z,7.13
2018-12-27T14:33:29.435Z,6.50
2018-12-27T14:36:02.161Z,7.37
2018-12-27T14:38:34.876Z,7.50
2018-12-27T14:41:07.542Z,8.27
2018-12-27T14:43:40.555Z,8.30
2018-12-27T14:46:13.417Z,8.90
2018-12-27T14:48:46.119Z,8.30
2018-12-27T14:51:20.145Z,8.67
2018-12-27T14:53:53.247Z,8.47
2018-12-27T14:56:28.103Z,8.77
2018-12-27T14:59:00.784Z,9.00
2018-12-27T15:01:35.487Z,8.70
2018-12-27T15:04:08.299Z,8.33
2018-12-27T15:06:46.881Z,7.97
2018-12-27T15:09:16.931Z,8.30
2018-12-27T15:11:49.744Z,7.93
2018-12-27T15:14:22.950Z,7.80
2018-12-27T15:16:55.719Z,8.80
2018-12-27T15:19:29.303Z,8.77
2018-12-27T15:22:02.147Z,9.40
2018-12-27T15:24:35.241Z,8.80
2018-12-27T15:27:07.959Z,8.27
2018-12-27T15:29:40.671Z,8.50
2018-12-27T15:32:15.680Z,8.30
2018-12-27T15:34:49.987Z,8.97
2018-12-27T15:37:24.162Z,8.97
2018-12-27T15:39:56.851Z,8.10
2018-12-27T15:42:29.601Z,7.63
2018-12-27T15:45:04.615Z,7.30
2018-12-27T15:47:38.185Z,7.93
2018-12-27T15:50:13.283Z,7.83
2018-12-27T15:52:46.044Z,8.20
2018-12-27T15:55:20.811Z,7.23
2018-12-27T15:57:53.489Z,7.33
2018-12-27T16:00:28.408Z,6.80
2018-12-27T16:03:01.055Z,7.17
2018-12-27T16:05:36.167Z,6.70
2018-12-27T16:08:08.870Z,6.97
2018-12-27T16:10:43.415Z,7.00
2018-12-27T16:13:16.139Z,6.33
2018-12-27T16:15:48.810Z,7.23
2018-12-27T16:18:21.447Z,6.20
2018-12-27T16:20:54.328Z,6.03
2018-12-27T16:23:28.814Z,7.23
2018-12-27T16:26:01.643Z,8.50
2018-12-27T16:28:35.795Z,7.50
2018-12-27T16:31:09.646Z,6.63
2018-12-27T16:33:42.599Z,7.73
2018-12-27T16:36:15.282Z,7.53
2018-12-27T16:38:47.967Z,8.53
2018-12-27T16:41:21.146Z,7.27
2018-12-27T16:43:54.287Z,7.20
2018-12-27T16:46:26.976Z,8.30
2018-12-27T16:49:02.329Z,7.87
2018-12-27T16:51:34.986Z,7.90
2018-12-27T16:54:07.674Z,8.00
2018-12-27T16:56:40.355Z,8.47
2018-12-27T16:59:14.982Z,8.40
2018-12-27T17:01:48.419Z,8.47
2018-12-27T17:04:21.099Z,7.63
2018-12-27T17:06:53.793Z,7.73
2018-12-27T17:09:26.709Z,7.83
2018-12-27T17:11:59.400Z,9.07
2018-12-27T17:14:35.260Z,9.40
2018-12-27T17:17:08.694Z,9.40
2018-12-27T17:19:41.410Z,9.87
2018-12-27T17:22:14.267Z,11.00
2018-12-27T17:24:46.999Z,11.03
2018-12-27T17:27:19.764Z,12.33
2018-12-27T17:29:52.419Z,14.27
2018-12-27T17:32:25.356Z,14.40
2018-12-27T17:34:58.417Z,15.13
2018-12-27T17:37:34.097Z,14.67
2018-12-27T17:40:07.433Z,13.97
2018-12-27T17:42:40.599Z,13.10
2018-12-27T17:45:13.625Z,13.70
2018-12-27T17:47:46.654Z,12.77
2018-12-27T17:50:19.364Z,15.00
2018-12-27T17:52:53.071Z,14.73
2018-12-27T17:55:25.775Z,15.17
2018-12-27T17:57:58.539Z,15.27
2018-12-27T18:00:31.971Z,15.77
2018-12-27T18:03:04.726Z,14.53
2018-12-27T18:05:37.795Z,18.10
2018-12-27T18:08:12.046Z,18.83
2018-12-27T18:10:44.866Z,18.17
2018-12-27T18:13:17.649Z,17.80
2018-12-27T18:15:50.298Z,16.90
2018-12-27T18:18:23.010Z,16.60
2018-12-27T18:20:55.702Z,15.90
2018-12-27T18:23:28.932Z,19.03
2018-12-27T18:26:01.612Z,17.97
2018-12-27T18:28:34.645Z,18.70
2018-12-27T18:31:09.635Z,17.37
2018-12-27T18:33:44.239Z,16.53
2018-12-27T18:36:17.590Z,15.93
2018-12-27T18:38:51.080Z,16.90
2018-12-27T18:41:24.164Z,15.93
2018-12-27T18:43:56.959Z,15.73
2018-12-27T18:46:30.687Z,15.87
2018-12-27T18:49:03.410Z,15.43
2018-12-27T18:51:36.432Z,14.90
2018-12-27T18:54:12.075Z,14.47
2018-12-27T18:56:45.059Z,15.70
2018-12-27T18:59:17.785Z,16.17
2018-12-27T19:01:50.506Z,17.17
2018-12-27T19:04:23.188Z,16.77
2018-12-27T19:06:55.834Z,14.63
2018-12-27T19:09:28.495Z,14.43
2018-12-27T19:12:44.850Z,13.90
2018-12-27T19:15:20.496Z,13.17
2018-12-27T19:17:59.679Z,12.70
2018-12-27T19:20:33.975Z,12.63
2018-12-27T19:23:16.018Z,11.33
2018-12-27T19:25:49.038Z,9.37
2018-12-27T19:28:22.027Z,10.10
2018-12-27T19:30:54.706Z,9.30
2018-12-27T19:33:27.350Z,11.40
2018-12-27T19:36:00.324Z,11.07
2018-12-27T19:38:32.951Z,10.40
2018-12-27T19:41:05.642Z,12.07
2018-12-27T19:43:38.286Z,11.20
2018-12-27T19:46:11.494Z,11.07
2018-12-27T19:48:44.144Z,9.97
2018-12-27T19:51:17.151Z,10.70
2018-12-27T19:53:49.808Z,10.07
2018-12-27T19:56:22.818Z,9.70
2018-12-27T19:58:55.661Z,10.07
2018-12-27T20:01:28.377Z,9.90
2018-12-27T20:04:01.561Z,10.33
2018-12-27T20:06:34.271Z,10.13
2018-12-27T20:09:07.061Z,10.03
2018-12-27T20:11:39.798Z,10.77
